createdAt,value
2023-02-09T00:01:27.524Z,99.90
2023-02-09T00:03:55.501Z,99.90
2023-02-09T00:06:24.405Z,99.90
2023-02-09T00:08:51.764Z,99.90
2023-02-09T00:11:22.401Z,99.90
2023-02-09T00:13:49.717Z,99.90
2023-02-09T00:16:17.021Z,99.90
2023-02-09T00:18:44.350Z,99.90
2023-02-09T00:21:11.867Z,99.90
2023-02-09T00:23:41.206Z,99.90
2023-02-09T00:26:11.440Z,99.90
2023-02-09T00:28:41.943Z,99.90
2023-02-09T00:31:12.651Z,99.90
2023-02-09T00:33:42.999Z,99.90
2023-02-09T00:36:13.231Z,99.90
2023-02-09T00:38:43.374Z,99.90
2023-02-09T00:41:12.073Z,99.90
2023-02-09T00:43:40.034Z,99.90
2023-02-09T00:46:08.062Z,99.90
2023-02-09T00:48:36.834Z,99.90
2023-02-09T00:51:04.235Z,99.90
2023-02-09T00:53:31.566Z,99.90
2023-02-09T00:55:59.955Z,99.90
2023-02-09T00:58:27.350Z,99.90
2023-02-09T01:00:54.677Z,99.90
2023-02-09T01:03:21.953Z,99.90
2023-02-09T01:05:49.254Z,99.90
2023-02-09T01:08:16.515Z,99.90
2023-02-09T01:10:44.137Z,99.90
2023-02-09T01:13:11.619Z,99.90
2023-02-09T01:15:40.146Z,99.90
2023-02-09T01:18:07.764Z,99.90
2023-02-09T01:20:35.785Z,99.90
2023-02-09T01:23:03.146Z,99.90
2023-02-09T01:25:31.277Z,99.90
2023-02-09T01:27:58.989Z,99.90
2023-02-09T01:30:27.320Z,99.90
2023-02-09T01:32:55.634Z,99.90
2023-02-09T01:35:22.994Z,99.90
2023-02-09T01:37:50.280Z,99.90
2023-02-09T01:40:17.674Z,99.90
2023-02-09T01:42:45.007Z,99.90
2023-02-09T01:45:22.217Z,99.90
2023-02-09T01:48:01.441Z,99.90
2023-02-09T01:50:34.049Z,99.90
2023-02-09T01:53:02.607Z,99.90
2023-02-09T01:55:34.677Z,99.90
2023-02-09T01:58:07.644Z,99.90
2023-02-09T02:00:35.779Z,99.90
2023-02-09T02:03:07.406Z,99.90
2023-02-09T02:05:37.334Z,99.90
2023-02-09T02:08:22.371Z,99.90
2023-02-09T02:10:50.555Z,99.90
2023-02-09T02:13:18.332Z,99.90
2023-02-09T02:16:17.039Z,99.90
2023-02-09T02:19:45.567Z,99.90
2023-02-09T02:22:43.983Z,99.90
2023-02-09T02:25:58.080Z,99.90
2023-02-09T02:28:59.343Z,99.90
2023-02-09T02:31:29.542Z,99.90
2023-02-09T02:34:40.046Z,99.90
2023-02-09T02:37:59.722Z,99.90
2023-02-09T02:40:40.756Z,99.90
2023-02-09T02:43:45.449Z,99.90
2023-02-09T02:46:46.708Z,99.90
2023-02-09T02:49:26.474Z,99.90
2023-02-09T02:51:58.843Z,99.90
2023-02-09T02:54:34.527Z,99.90
2023-02-09T02:57:07.565Z,99.90
2023-02-09T02:59:41.951Z,99.90
2023-02-09T03:02:14.580Z,99.90
2023-02-09T03:04:44.424Z,99.90
2023-02-09T03:07:11.735Z,99.90
2023-02-09T03:09:49.379Z,99.90
2023-02-09T03:12:51.093Z,99.90
2023-02-09T03:15:50.885Z,99.90
2023-02-09T03:18:32.412Z,99.90
2023-02-09T03:21:16.613Z,99.90
2023-02-09T03:23:53.720Z,99.90
2023-02-09T03:26:25.530Z,99.90
2023-02-09T03:28:57.066Z,99.90
2023-02-09T03:31:25.448Z,99.90
2023-02-09T03:33:52.857Z,99.90
2023-02-09T03:36:21.063Z,99.90
2023-02-09T03:38:48.402Z,99.90
2023-02-09T03:41:15.645Z,99.90
2023-02-09T03:44:01.702Z,99.90
2023-02-09T03:46:29.017Z,99.90
2023-02-09T03:48:56.373Z,99.90
2023-02-09T03:51:23.677Z,99.90
2023-02-09T03:53:51.020Z,99.90
2023-02-09T03:56:18.276Z,99.90
2023-02-09T03:58:45.578Z,99.90
2023-02-09T04:01:12.905Z,99.90
2023-02-09T04:03:40.314Z,99.90
2023-02-09T04:06:09.897Z,99.90
2023-02-09T04:08:37.270Z,99.90
2023-02-09T04:11:04.891Z,99.90
2023-02-09T04:13:32.152Z,99.90
2023-02-09T04:15:59.467Z,99.90
2023-02-09T04:18:27.043Z,99.90
2023-02-09T04:20:54.311Z,99.90
2023-02-09T04:23:21.629Z,99.90
2023-02-09T04:25:48.908Z,99.90
2023-02-09T04:28:18.376Z,99.90
2023-02-09T04:30:46.160Z,99.90
2023-02-09T04:33:13.663Z,99.90
2023-02-09T04:35:40.978Z,99.90
2023-02-09T04:38:08.263Z,99.90
2023-02-09T04:40:35.548Z,99.90
2023-02-09T04:43:03.374Z,99.90
2023-02-09T04:45:30.932Z,99.90
2023-02-09T04:47:58.237Z,99.90
2023-02-09T04:50:25.812Z,99.90
2023-02-09T04:52:53.099Z,99.90
2023-02-09T04:55:20.426Z,99.90
2023-02-09T04:58:06.288Z,99.90
2023-02-09T05:00:33.610Z,99.90
2023-02-09T05:03:00.918Z,99.90
2023-02-09T05:05:28.416Z,99.90
2023-02-09T05:07:55.707Z,99.90
2023-02-09T05:10:23.302Z,99.90
2023-02-09T05:12:50.610Z,99.90
2023-02-09T05:15:17.978Z,99.90
2023-02-09T05:17:45.259Z,99.90
2023-02-09T05:20:12.809Z,99.90
2023-02-09T05:22:40.082Z,99.90
2023-02-09T05:25:07.462Z,99.90
2023-02-09T05:27:34.763Z,99.90
2023-02-09T05:30:02.164Z,99.90
2023-02-09T05:32:29.431Z,99.90
2023-02-09T05:34:56.770Z,99.90
2023-02-09T05:37:24.049Z,99.90
2023-02-09T05:39:51.567Z,99.90
2023-02-09T05:42:18.928Z,99.90
2023-02-09T05:44:48.786Z,99.90
2023-02-09T05:47:18.765Z,99.90
2023-02-09T05:49:46.242Z,99.90
2023-02-09T05:52:14.341Z,99.90
2023-02-09T05:54:41.669Z,99.90
2023-02-09T05:57:09.220Z,99.90
2023-02-09T05:59:36.629Z,99.90
2023-02-09T06:02:04.629Z,99.90
2023-02-09T06:04:32.323Z,99.90
2023-02-09T06:06:59.688Z,99.90
2023-02-09T06:09:27.321Z,99.90
2023-02-09T06:11:54.659Z,99.90
2023-02-09T06:14:22.503Z,99.90
2023-02-09T06:16:49.782Z,99.90
2023-02-09T06:19:19.774Z,99.90
2023-02-09T06:21:47.308Z,99.90
2023-02-09T06:24:15.485Z,99.90
2023-02-09T06:26:43.142Z,99.90
2023-02-09T06:29:10.684Z,99.90
2023-02-09T06:31:38.478Z,99.90
2023-02-09T06:34:05.949Z,99.90
2023-02-09T06:36:33.313Z,99.90
2023-02-09T06:39:01.321Z,99.90
2023-02-09T06:41:28.895Z,99.90
2023-02-09T06:43:56.433Z,99.90
2023-02-09T06:46:23.813Z,99.90
2023-02-09T06:48:51.457Z,99.90
2023-02-09T06:51:18.956Z,99.90
2023-02-09T06:53:46.618Z,99.90
2023-02-09T06:56:13.998Z,99.90
2023-02-09T06:58:42.064Z,99.90
2023-02-09T07:01:12.828Z,99.90
2023-02-09T07:03:40.174Z,99.90
2023-02-09T07:06:13.210Z,99.90
2023-02-09T07:08:41.132Z,99.90
2023-02-09T07:11:12.348Z,99.90
2023-02-09T07:13:39.846Z,99.90
2023-02-09T07:16:08.981Z,99.90
2023-02-09T07:18:36.609Z,99.90
2023-02-09T07:21:09.844Z,99.90
2023-02-09T07:23:37.678Z,99.90
2023-02-09T07:26:07.615Z,99.90
2023-02-09T07:28:36.168Z,99.90
2023-02-09T07:31:06.561Z,99.90
2023-02-09T07:33:34.762Z,99.90
2023-02-09T07:36:07.270Z,99.90
2023-02-09T07:38:35.428Z,99.90
2023-02-09T07:41:04.433Z,99.90
2023-02-09T07:43:32.061Z,99.90
2023-02-09T07:46:01.036Z,99.90
2023-02-09T07:48:29.234Z,99.90
2023-02-09T07:50:56.771Z,99.90
2023-02-09T07:53:24.415Z,99.90
2023-02-09T07:55:51.732Z,99.90
2023-02-09T07:58:20.305Z,99.90
2023-02-09T08:00:48.926Z,99.90
2023-02-09T08:03:19.084Z,99.90
2023-02-09T08:06:24.281Z,99.90
2023-02-09T08:08:54.077Z,99.90
2023-02-09T08:11:29.292Z,99.90
2023-02-09T08:14:02.079Z,99.90
2023-02-09T08:16:32.153Z,99.90
2023-02-09T08:19:26.348Z,99.90
2023-02-09T08:21:53.787Z,99.90
2023-02-09T08:24:21.742Z,99.90
2023-02-09T08:26:49.640Z,99.90
2023-02-09T08:29:17.041Z,99.90
2023-02-09T08:31:44.454Z,99.90
2023-02-09T08:34:11.818Z,99.90
2023-02-09T08:36:41.459Z,99.90
2023-02-09T08:39:09.576Z,99.90
2023-02-09T08:41:36.913Z,99.90
2023-02-09T08:44:04.552Z,99.90
2023-02-09T08:46:34.637Z,99.90
2023-02-09T08:49:02.154Z,99.90
2023-02-09T08:51:29.461Z,99.90
2023-02-09T08:53:56.792Z,99.90
2023-02-09T08:56:24.104Z,99.90
2023-02-09T08:58:51.392Z,99.90
2023-02-09T09:01:18.824Z,99.90
2023-02-09T09:03:46.284Z,99.90
2023-02-09T09:06:13.789Z,99.90
2023-02-09T09:08:41.422Z,99.90
2023-02-09T09:11:13.003Z,99.90
2023-02-09T09:13:43.877Z,99.90
2023-02-09T09:16:16.658Z,99.90
2023-02-09T09:18:46.950Z,99.90
2023-02-09T09:21:16.358Z,99.90
2023-02-09T09:23:45.103Z,99.90
2023-02-09T09:26:12.536Z,99.90
2023-02-09T09:28:39.855Z,99.90
2023-02-09T09:31:13.262Z,98.50
2023-02-09T09:33:41.835Z,98.90
2023-02-09T09:36:10.370Z,98.10
2023-02-09T09:38:39.294Z,97.80
2023-02-09T09:41:18.195Z,95.80
2023-02-09T09:43:45.488Z,95.10
2023-02-09T09:46:18.517Z,95.50
2023-02-09T09:48:50.421Z,95.60
2023-02-09T09:51:53.748Z,94.00
2023-02-09T09:54:28.963Z,93.10
2023-02-09T09:56:56.634Z,94.70
2023-02-09T09:59:28.689Z,95.80
2023-02-09T10:01:57.565Z,95.20
2023-02-09T10:04:24.820Z,93.70
2023-02-09T10:07:10.363Z,95.00
2023-02-09T10:09:43.600Z,94.20
2023-02-09T10:12:37.066Z,93.40
2023-02-09T10:15:31.418Z,93.30
2023-02-09T10:17:59.992Z,92.10
2023-02-09T10:20:47.968Z,91.90
2023-02-09T10:23:39.154Z,91.60
2023-02-09T10:26:33.924Z,94.10
2023-02-09T10:29:22.527Z,93.50
2023-02-09T10:32:05.743Z,92.50
2023-02-09T10:34:45.718Z,92.10
2023-02-09T10:37:26.754Z,91.20
2023-02-09T10:40:17.469Z,91.10
2023-02-09T10:43:02.836Z,91.40
2023-02-09T10:45:46.901Z,91.20
2023-02-09T10:48:20.679Z,91.40
2023-02-09T10:51:05.688Z,91.20
2023-02-09T10:54:02.649Z,90.70
2023-02-09T10:56:45.457Z,91.50
2023-02-09T10:59:25.088Z,90.80
2023-02-09T11:02:01.049Z,89.60
2023-02-09T11:04:40.431Z,90.10
2023-02-09T11:07:16.485Z,89.70
2023-02-09T11:09:47.665Z,90.20
2023-02-09T11:12:15.092Z,90.60
2023-02-09T11:14:43.509Z,89.90
2023-02-09T11:17:23.051Z,89.20
2023-02-09T11:20:35.816Z,89.00
2023-02-09T11:23:28.938Z,89.90
2023-02-09T11:26:07.452Z,89.40
2023-02-09T11:28:46.075Z,88.40
2023-02-09T11:31:39.612Z,88.80
2023-02-09T11:34:41.465Z,87.40
2023-02-09T11:37:38.412Z,87.10
2023-02-09T11:40:32.747Z,85.60
2023-02-09T11:43:27.552Z,86.40
2023-02-09T11:46:03.222Z,85.40
2023-02-09T11:48:40.383Z,84.40
2023-02-09T11:51:30.930Z,82.30
2023-02-09T11:54:21.089Z,85.00
2023-02-09T11:56:59.369Z,83.50
2023-02-09T11:59:39.232Z,83.40
2023-02-09T12:02:38.599Z,82.90
2023-02-09T12:05:11.098Z,81.90
2023-02-09T12:08:16.975Z,82.20
2023-02-09T12:11:31.758Z,79.20
2023-02-09T12:14:16.409Z,77.60
2023-02-09T12:16:50.787Z,76.50
2023-02-09T12:19:34.348Z,73.20
2023-02-09T12:22:39.071Z,74.60
2023-02-09T12:25:51.308Z,77.10
2023-02-09T12:28:39.184Z,76.40
2023-02-09T12:31:10.766Z,76.10
2023-02-09T12:33:51.225Z,75.40
2023-02-09T12:36:34.641Z,75.70
2023-02-09T12:39:28.659Z,74.60
2023-02-09T12:42:16.159Z,75.00
2023-02-09T12:45:23.868Z,75.60
2023-02-09T12:47:59.451Z,75.30
2023-02-09T12:50:33.078Z,75.20
2023-02-09T12:53:36.640Z,73.80
2023-02-09T12:56:28.903Z,74.00
2023-02-09T12:59:12.910Z,75.00
2023-02-09T13:02:27.923Z,75.60
2023-02-09T13:05:07.566Z,74.00
2023-02-09T13:07:56.777Z,72.50
2023-02-09T13:10:55.581Z,74.10
2023-02-09T13:13:52.742Z,72.70
2023-02-09T13:16:52.879Z,73.80
2023-02-09T13:20:03.008Z,74.50
2023-02-09T13:23:28.364Z,75.40
2023-02-09T13:26:09.178Z,74.20
2023-02-09T13:28:36.471Z,73.90
2023-02-09T13:31:35.061Z,74.60
2023-02-09T13:34:27.427Z,74.10
2023-02-09T13:37:33.510Z,76.30
2023-02-09T13:40:12.872Z,73.80
2023-02-09T13:43:03.392Z,74.50
2023-02-09T13:45:31.057Z,76.40
2023-02-09T13:48:00.624Z,75.90
2023-02-09T13:50:28.526Z,76.70
2023-02-09T13:53:08.679Z,78.40
2023-02-09T13:55:39.917Z,77.30
2023-02-09T13:58:08.811Z,77.50
2023-02-09T14:00:43.657Z,78.80
2023-02-09T14:03:21.430Z,76.50
2023-02-09T14:06:23.413Z,75.00
2023-02-09T14:08:52.103Z,75.70
2023-02-09T14:11:57.294Z,76.30
2023-02-09T14:14:54.948Z,76.50
2023-02-09T14:17:26.893Z,78.30
2023-02-09T14:19:55.704Z,78.00
2023-02-09T14:22:59.423Z,77.60
2023-02-09T14:25:31.321Z,77.30
2023-02-09T14:27:58.885Z,77.10
2023-02-09T14:30:34.118Z,78.00
2023-02-09T14:33:03.464Z,78.00
2023-02-09T14:35:40.205Z,76.50
2023-02-09T14:38:42.689Z,76.40
2023-02-09T14:41:28.716Z,77.80
2023-02-09T14:44:17.854Z,77.00
2023-02-09T14:46:57.589Z,77.00
2023-02-09T14:49:26.055Z,76.60
2023-02-09T14:52:06.164Z,75.90
2023-02-09T14:54:40.242Z,76.40
2023-02-09T14:57:12.288Z,76.20
2023-02-09T14:59:39.553Z,77.50
2023-02-09T15:02:18.068Z,77.90
2023-02-09T15:04:45.736Z,77.70
2023-02-09T15:07:17.860Z,78.20
2023-02-09T15:09:45.797Z,78.80
2023-02-09T15:12:25.755Z,79.00
2023-02-09T15:14:56.622Z,78.60
2023-02-09T15:17:25.779Z,78.60
2023-02-09T15:19:53.349Z,80.00
2023-02-09T15:22:21.000Z,80.10
2023-02-09T15:24:51.246Z,80.20
2023-02-09T15:27:28.940Z,81.30
2023-02-09T15:29:58.690Z,81.50
2023-02-09T15:32:27.426Z,81.50
2023-02-09T15:34:54.893Z,81.90
2023-02-09T15:37:25.442Z,82.80
2023-02-09T15:39:57.562Z,84.30
2023-02-09T15:42:43.287Z,84.60
2023-02-09T15:45:40.885Z,86.20
2023-02-09T15:48:09.159Z,87.20
2023-02-09T15:50:43.689Z,89.20
2023-02-09T15:53:15.034Z,91.20
2023-02-09T15:55:43.514Z,91.20
2023-02-09T15:58:15.162Z,91.20
2023-02-09T16:00:43.139Z,91.50
2023-02-09T16:03:17.472Z,91.50
2023-02-09T16:05:45.631Z,91.80
2023-02-09T16:08:25.162Z,92.60
2023-02-09T16:10:53.249Z,93.00
2023-02-09T16:13:20.652Z,93.40
2023-02-09T16:15:48.556Z,93.40
2023-02-09T16:18:16.027Z,94.30
2023-02-09T16:20:47.141Z,95.40
2023-02-09T16:23:20.975Z,97.30
2023-02-09T16:25:53.104Z,98.80
2023-02-09T16:28:21.652Z,99.60
2023-02-09T16:30:53.047Z,99.70
2023-02-09T16:33:21.648Z,99.90
2023-02-09T16:35:54.537Z,99.90
2023-02-09T16:38:23.121Z,99.90
2023-02-09T16:40:50.763Z,99.90
2023-02-09T16:43:19.248Z,99.90
2023-02-09T16:46:01.163Z,99.90
2023-02-09T16:48:32.239Z,99.90
2023-02-09T16:50:59.738Z,99.90
2023-02-09T16:53:37.435Z,99.90
2023-02-09T16:56:10.270Z,99.90
2023-02-09T16:58:38.429Z,99.90
2023-02-09T17:01:14.451Z,99.90
2023-02-09T17:03:43.380Z,99.90
2023-02-09T17:06:22.498Z,99.90
2023-02-09T17:08:50.126Z,99.90
2023-02-09T17:11:21.378Z,99.90
2023-02-09T17:13:48.886Z,99.90
2023-02-09T17:16:28.374Z,99.90
2023-02-09T17:19:00.912Z,99.90
2023-02-09T17:21:35.353Z,99.90
2023-02-09T17:24:13.579Z,99.90
2023-02-09T17:26:41.321Z,99.90
2023-02-09T17:29:09.392Z,99.90
2023-02-09T17:31:51.922Z,99.90
2023-02-09T17:34:21.993Z,99.90
2023-02-09T17:36:49.326Z,99.90
2023-02-09T17:39:19.014Z,99.90
2023-02-09T17:41:48.536Z,99.90
2023-02-09T17:44:31.623Z,99.90
2023-02-09T17:47:06.074Z,99.90
2023-02-09T17:49:34.222Z,99.90
2023-02-09T17:52:01.551Z,99.90
2023-02-09T17:54:28.806Z,99.90
2023-02-09T17:56:56.105Z,99.90
2023-02-09T17:59:23.398Z,99.90
2023-02-09T18:01:51.120Z,99.90
2023-02-09T18:04:26.676Z,99.90
2023-02-09T18:06:56.663Z,99.90
2023-02-09T18:09:25.035Z,99.90
2023-02-09T18:12:04.272Z,99.90
2023-02-09T18:14:34.152Z,99.90
2023-02-09T18:17:02.169Z,99.90
2023-02-09T18:19:29.592Z,99.90
2023-02-09T18:21:59.436Z,99.90
2023-02-09T18:24:29.772Z,99.90
2023-02-09T18:26:57.716Z,99.90
2023-02-09T18:29:29.325Z,99.90
2023-02-09T18:32:01.990Z,99.90
2023-02-09T18:34:30.194Z,99.90
2023-02-09T18:36:57.744Z,99.90
2023-02-09T18:39:25.052Z,99.90
2023-02-09T18:41:54.828Z,99.90
2023-02-09T18:44:29.331Z,99.90
2023-02-09T18:46:57.992Z,99.90
2023-02-09T18:49:25.282Z,99.90
2023-02-09T18:51:52.592Z,99.90
2023-02-09T18:54:19.852Z,99.90
2023-02-09T18:56:47.413Z,99.90
2023-02-09T18:59:17.279Z,99.90
2023-02-09T19:01:45.223Z,99.90
2023-02-09T19:04:13.552Z,99.90
2023-02-09T19:06:40.913Z,99.90
2023-02-09T19:09:08.314Z,99.90
2023-02-09T19:11:35.635Z,99.90
2023-02-09T19:14:21.541Z,99.90
2023-02-09T19:16:48.843Z,99.90
2023-02-09T19:19:16.276Z,99.90
2023-02-09T19:21:43.539Z,99.90
2023-02-09T19:24:10.953Z,99.90
2023-02-09T19:26:38.246Z,99.90
2023-02-09T19:29:05.580Z,99.90
2023-02-09T19:31:32.856Z,99.90
2023-02-09T19:34:00.213Z,99.90
2023-02-09T19:36:28.246Z,99.90
2023-02-09T19:38:56.293Z,99.90
2023-02-09T19:41:25.428Z,99.90
2023-02-09T19:43:57.445Z,99.90
2023-02-09T19:46:24.788Z,99.90
2023-02-09T19:48:53.871Z,99.90
2023-02-09T19:51:22.248Z,99.90
2023-02-09T19:53:50.245Z,99.90
2023-02-09T19:56:20.833Z,99.90
2023-02-09T19:58:48.193Z,99.90
2023-02-09T20:01:16.057Z,99.90
2023-02-09T20:03:43.399Z,99.90
2023-02-09T20:06:13.402Z,99.90
2023-02-09T20:08:41.212Z,99.90
2023-02-09T20:11:19.721Z,99.90
2023-02-09T20:13:51.026Z,99.90
2023-02-09T20:16:22.272Z,99.90
2023-02-09T20:18:51.023Z,99.90
2023-02-09T20:21:19.944Z,99.90
2023-02-09T20:23:47.924Z,99.90
2023-02-09T20:26:26.449Z,99.90
2023-02-09T20:28:55.315Z,99.90
2023-02-09T20:31:26.571Z,99.90
2023-02-09T20:33:54.764Z,99.90
2023-02-09T20:36:24.460Z,99.90
2023-02-09T20:38:52.626Z,99.90
2023-02-09T20:41:20.011Z,99.90
2023-02-09T20:44:05.721Z,99.90
2023-02-09T20:46:52.431Z,99.90
2023-02-09T20:49:19.845Z,99.90
2023-02-09T20:51:47.205Z,99.90
2023-02-09T20:54:15.096Z,99.90
2023-02-09T20:56:42.396Z,99.90
2023-02-09T20:59:11.463Z,99.90
2023-02-09T21:01:40.129Z,99.90
2023-02-09T21:04:08.526Z,99.90
2023-02-09T21:06:37.295Z,99.90
2023-02-09T21:09:06.243Z,99.90
2023-02-09T21:11:34.023Z,99.90
2023-02-09T21:14:01.607Z,99.90
2023-02-09T21:16:30.777Z,99.90
2023-02-09T21:18:59.042Z,99.90
2023-02-09T21:21:27.402Z,99.90
2023-02-09T21:23:54.761Z,99.90
2023-02-09T21:26:24.476Z,99.90
2023-02-09T21:28:56.199Z,99.90
2023-02-09T21:31:26.033Z,99.90
2023-02-09T21:33:53.555Z,99.90
2023-02-09T21:36:20.826Z,99.90
2023-02-09T21:38:48.208Z,99.90
2023-02-09T21:41:40.107Z,99.90
2023-02-09T21:44:12.601Z,99.90
2023-02-09T21:46:39.910Z,99.90
2023-02-09T21:49:07.896Z,99.90
2023-02-09T21:51:35.586Z,99.90
2023-02-09T21:54:02.858Z,99.90
2023-02-09T21:56:30.197Z,99.90
2023-02-09T21:58:57.582Z,99.90
2023-02-09T22:01:24.952Z,99.90
2023-02-09T22:03:57.302Z,99.90
2023-02-09T22:06:25.947Z,99.90
2023-02-09T22:08:53.573Z,99.90
2023-02-09T22:11:21.016Z,99.90
2023-02-09T22:13:48.332Z,99.90
2023-02-09T22:16:21.435Z,99.90
2023-02-09T22:18:48.754Z,99.90
2023-02-09T22:21:16.351Z,99.90
2023-02-09T22:23:43.642Z,99.90
2023-02-09T22:26:13.783Z,99.90
2023-02-09T22:28:41.728Z,99.90
2023-02-09T22:31:11.905Z,99.90
2023-02-09T22:33:39.655Z,99.90
2023-02-09T22:36:11.334Z,99.90
2023-02-09T22:38:39.414Z,99.90
2023-02-09T22:41:21.327Z,99.90
2023-02-09T22:43:49.444Z,99.90
2023-02-09T22:46:17.042Z,99.90
2023-02-09T22:48:44.756Z,99.90
2023-02-09T22:51:19.176Z,99.90
2023-02-09T22:53:47.206Z,99.90
2023-02-09T22:56:15.278Z,99.90
2023-02-09T22:58:43.089Z,99.90
2023-02-09T23:01:10.800Z,99.90
2023-02-09T23:03:38.667Z,99.90
2023-02-09T23:06:09.139Z,99.90
2023-02-09T23:08:36.544Z,99.90
2023-02-09T23:11:05.818Z,99.90
2023-02-09T23:13:33.770Z,99.90
2023-02-09T23:16:18.212Z,99.90
2023-02-09T23:18:51.339Z,99.90
2023-02-09T23:21:20.383Z,99.90
2023-02-09T23:23:48.159Z,99.90
2023-02-09T23:26:16.845Z,99.90
2023-02-09T23:28:44.660Z,99.90
2023-02-09T23:31:15.170Z,99.90
2023-02-09T23:33:42.838Z,99.90
2023-02-09T23:36:13.712Z,99.90
2023-02-09T23:38:41.128Z,99.90
2023-02-09T23:41:10.423Z,99.90
2023-02-09T23:43:38.260Z,99.90
2023-02-09T23:46:08.675Z,99.90
2023-02-09T23:48:36.196Z,99.90
2023-02-09T23:51:06.968Z,99.90
2023-02-09T23:53:34.895Z,99.90
2023-02-09T23:56:04.984Z,99.90
2023-02-09T23:58:38.211Z,99.90
